LJLJ Airport Information

Runway Information
Runway 13 Length 10827 ft width 148 ft
Elevation 1273 ft Threshold 0 ft Heading 126
Runway 31 Length 10827 ft Width 148 ft
Elevation 1191 ft Threshold 0 ft Heading 306
Airport Frequencies
Type A/D Name APP Frequency 135.275 MHZ
Type ATIS Name also on VO Frequency 128.175 MHZ
Type GND Name Frequency 121.625 MHZ
Type HANDLING & Name Frequency 131.4 MHZ
Type TWR Name TWR Frequency 118 MHZ
Airport Navaids
Type VOR-DME Name Dolsko Frequency 112700 KHZ
Type NDB Name Dolsko Frequency 328 KHZ
Type NDB Name Ljubljana Frequency 296 KHZ
Airport Weather Information & NOTAM
ADDS - METARS form results

(1810 UTC 22 March 2019)
Data provider http://aviationweather.gov/metar/data/
 
METAR text: LJLJ 221800Z VRB01KT CAVOK 08/04 Q1028 NOSIG
Conditions at: LJLJ (LJUBLJANA/BRNIK , SI) observed 1800 UTC 22 March 2019
Temperature: 8.0°C (46°F)
Dewpoint: 4.0°C (39°F) [RH = 76%]
Pressure (altimeter): 30.35 inches Hg (1028.0 mb)
Winds: variable direction winds at 1 MPH (1 knots; 0.5 m/s)
Visibility: 6 or more miles (10+ km)
Ceiling: ceiling and visibility are OK
Clouds: unknown
Weather: no significant weather observed at this time

METAR text: LJLJ 221730Z 13004KT CAVOK 12/03 Q1028 NOSIG
Conditions at: LJLJ (LJUBLJANA/BRNIK , SI) observed 1730 UTC 22 March 2019
Temperature: 12.0°C (54°F)
Dewpoint: 3.0°C (37°F) [RH = 54%]
Pressure (altimeter): 30.35 inches Hg (1028.0 mb)
Winds: from the SE (130 degrees) at 5 MPH (4 knots; 2.1 m/s)
Visibility: 6 or more miles (10+ km)
Ceiling: ceiling and visibility are OK
Clouds: unknown
Weather: no significant weather observed at this time

Forecast for: LJLJ (LJUBLJANA/BRNIK , SI)
Text: TAF LJLJ 221700Z 2218/2318 30003KT CAVOK
Forecast period: 1800 UTC 22 March 2019 to 0900 UTC 23 March 2019
Forecast type: FROM: standard forecast or significant change
Winds: from the WNW (300 degrees) at 3 MPH (3 knots; 1.5 m/s)
Visibility: 6 or more miles 10+ km)
Ceiling: unknown
Clouds: missing
Weather: NSW  (no significant weather)
Text: BECMG 2309/2311 12005KT
Forecast period: 0900 to 1800 UTC 23 March 2019
Forecast type: BECOMING: Conditions expected to become as follows by 1100 UTC 23 March 2019
Winds: from the ESE (120 degrees) at 6 MPH (5 knots; 2.6 m/s)
Visibility: 6 or more miles 10+ km)
Ceiling: unknown
Clouds: missing
Weather: NSW  (no significant weather)